sensor_id;sensor_type;location;lat;lon;timestamp;pressure;altitude;pressure_sealevel;temperature;humidity
53480;BME280;56133;51.012;-1.648;2022-10-16T00:01:14;99669.56;;;9.37;100.00
53480;BME280;56133;51.012;-1.648;2022-10-16T00:03:41;99669.97;;;9.43;100.00
53480;BME280;56133;51.012;-1.648;2022-10-16T00:06:08;99675.78;;;9.38;100.00
53480;BME280;56133;51.012;-1.648;2022-10-16T00:08:35;99682.94;;;9.47;100.00
53480;BME280;56133;51.012;-1.648;2022-10-16T00:11:09;99691.09;;;9.55;100.00
53480;BME280;56133;51.012;-1.648;2022-10-16T00:13:36;99694.56;;;9.66;100.00
53480;BME280;56133;51.012;-1.648;2022-10-16T00:16:02;99703.84;;;9.71;100.00
53480;BME280;56133;51.012;-1.648;2022-10-16T00:18:29;99705.00;;;9.69;100.00
53480;BME280;56133;51.012;-1.648;2022-10-16T00:20:55;99708.06;;;9.74;100.00
53480;BME280;56133;51.012;-1.648;2022-10-16T00:23:21;99704.09;;;9.78;100.00
53480;BME280;56133;51.012;-1.648;2022-10-16T00:25:58;99707.09;;;9.75;100.00
53480;BME280;56133;51.012;-1.648;2022-10-16T00:28:23;99709.47;;;9.78;100.00
53480;BME280;56133;51.012;-1.648;2022-10-16T00:30:49;99712.16;;;9.78;100.00
53480;BME280;56133;51.012;-1.648;2022-10-16T00:33:15;99715.81;;;9.77;100.00
53480;BME280;56133;51.012;-1.648;2022-10-16T00:35:40;99712.44;;;9.75;100.00
53480;BME280;56133;51.012;-1.648;2022-10-16T00:38:06;99716.00;;;9.76;100.00
53480;BME280;56133;51.012;-1.648;2022-10-16T00:40:31;99713.16;;;9.77;100.00
53480;BME280;56133;51.012;-1.648;2022-10-16T00:42:57;99716.81;;;9.76;100.00
53480;BME280;56133;51.012;-1.648;2022-10-16T00:45:22;99719.81;;;9.73;100.00
53480;BME280;56133;51.012;-1.648;2022-10-16T00:47:50;99734.59;;;9.77;100.00
53480;BME280;56133;51.012;-1.648;2022-10-16T00:50:33;99719.38;;;9.78;100.00
53480;BME280;56133;51.012;-1.648;2022-10-16T00:53:00;99727.16;;;9.71;100.00
53480;BME280;56133;51.012;-1.648;2022-10-16T00:55:27;99723.53;;;9.62;100.00
53480;BME280;56133;51.012;-1.648;2022-10-16T00:57:56;99736.56;;;9.47;100.00
53480;BME280;56133;51.012;-1.648;2022-10-16T01:00:25;99741.09;;;9.37;100.00
53480;BME280;56133;51.012;-1.648;2022-10-16T01:02:56;99743.38;;;9.32;100.00
53480;BME280;56133;51.012;-1.648;2022-10-16T01:05:24;99736.59;;;9.27;100.00
53480;BME280;56133;51.012;-1.648;2022-10-16T01:08:09;99742.25;;;9.24;100.00
53480;BME280;56133;51.012;-1.648;2022-10-16T01:10:43;99741.84;;;9.19;100.00
53480;BME280;56133;51.012;-1.648;2022-10-16T01:13:33;99751.59;;;9.10;100.00
53480;BME280;56133;51.012;-1.648;2022-10-16T01:18:34;99744.09;;;9.04;100.00
53480;BME280;56133;51.012;-1.648;2022-10-16T01:21:13;99743.84;;;8.98;100.00
53480;BME280;56133;51.012;-1.648;2022-10-16T01:24:44;99737.78;;;8.86;100.00
53480;BME280;56133;51.012;-1.648;2022-10-16T01:29:33;99745.97;;;8.74;100.00
53480;BME280;56133;51.012;-1.648;2022-10-16T01:32:09;99738.47;;;8.78;100.00
53480;BME280;56133;51.012;-1.648;2022-10-16T01:34:51;99747.50;;;8.67;100.00
53480;BME280;56133;51.012;-1.648;2022-10-16T01:37:29;99742.41;;;8.64;100.00
53480;BME280;56133;51.012;-1.648;2022-10-16T01:39:59;99750.16;;;8.57;100.00
53480;BME280;56133;51.012;-1.648;2022-10-16T01:42:30;99749.31;;;8.57;100.00
53480;BME280;56133;51.012;-1.648;2022-10-16T01:44:59;99750.44;;;8.54;100.00
53480;BME280;56133;51.012;-1.648;2022-10-16T01:47:26;99755.94;;;8.53;100.00
53480;BME280;56133;51.012;-1.648;2022-10-16T01:49:53;99752.94;;;8.46;100.00
53480;BME280;56133;51.012;-1.648;2022-10-16T01:52:22;99772.50;;;8.46;100.00
53480;BME280;56133;51.012;-1.648;2022-10-16T01:54:51;99766.47;;;8.44;100.00
53480;BME280;56133;51.012;-1.648;2022-10-16T01:57:18;99763.22;;;8.41;100.00
53480;BME280;56133;51.012;-1.648;2022-10-16T01:59:48;99775.19;;;8.37;100.00
53480;BME280;56133;51.012;-1.648;2022-10-16T02:02:15;99766.47;;;8.34;100.00
53480;BME280;56133;51.012;-1.648;2022-10-16T02:04:46;99767.84;;;8.39;100.00
53480;BME280;56133;51.012;-1.648;2022-10-16T02:07:14;99771.25;;;8.41;100.00
53480;BME280;56133;51.012;-1.648;2022-10-16T02:09:40;99768.16;;;8.45;100.00
53480;BME280;56133;51.012;-1.648;2022-10-16T02:12:14;99769.53;;;8.40;100.00
53480;BME280;56133;51.012;-1.648;2022-10-16T02:14:40;99772.09;;;8.41;100.00
53480;BME280;56133;51.012;-1.648;2022-10-16T02:17:15;99774.63;;;8.43;100.00
53480;BME280;56133;51.012;-1.648;2022-10-16T02:19:41;99779.84;;;8.34;100.00
53480;BME280;56133;51.012;-1.648;2022-10-16T02:22:10;99785.47;;;8.31;100.00
53480;BME280;56133;51.012;-1.648;2022-10-16T02:24:53;99787.56;;;8.28;100.00
53480;BME280;56133;51.012;-1.648;2022-10-16T02:27:45;99789.22;;;8.29;100.00
53480;BME280;56133;51.012;-1.648;2022-10-16T02:30:20;99791.34;;;8.25;100.00
53480;BME280;56133;51.012;-1.648;2022-10-16T02:32:48;99801.09;;;8.36;100.00
53480;BME280;56133;51.012;-1.648;2022-10-16T02:35:17;99797.84;;;8.32;100.00
53480;BME280;56133;51.012;-1.648;2022-10-16T02:37:44;99795.31;;;8.31;100.00
53480;BME280;56133;51.012;-1.648;2022-10-16T02:40:11;99792.50;;;8.32;100.00
53480;BME280;56133;51.012;-1.648;2022-10-16T02:42:38;99798.41;;;8.36;100.00
53480;BME280;56133;51.012;-1.648;2022-10-16T02:45:08;99803.06;;;8.34;100.00
53480;BME280;56133;51.012;-1.648;2022-10-16T02:47:35;99801.94;;;8.27;100.00
53480;BME280;56133;51.012;-1.648;2022-10-16T02:50:01;99807.09;;;8.18;100.00
53480;BME280;56133;51.012;-1.648;2022-10-16T02:52:26;99813.69;;;8.14;100.00
53480;BME280;56133;51.012;-1.648;2022-10-16T02:54:52;99812.31;;;8.20;100.00
53480;BME280;56133;51.012;-1.648;2022-10-16T02:57:17;99812.19;;;8.22;100.00
53480;BME280;56133;51.012;-1.648;2022-10-16T02:59:43;99811.66;;;8.28;100.00
53480;BME280;56133;51.012;-1.648;2022-10-16T03:02:08;99813.69;;;8.14;100.00
53480;BME280;56133;51.012;-1.648;2022-10-16T03:04:34;99822.13;;;8.10;100.00
53480;BME280;56133;51.012;-1.648;2022-10-16T03:06:59;99821.47;;;8.17;100.00
53480;BME280;56133;51.012;-1.648;2022-10-16T03:09:25;99818.94;;;8.16;100.00
53480;BME280;56133;51.012;-1.648;2022-10-16T03:11:50;99823.69;;;8.12;100.00
53480;BME280;56133;51.012;-1.648;2022-10-16T03:14:17;99825.00;;;8.18;100.00
53480;BME280;56133;51.012;-1.648;2022-10-16T03:16:42;99833.59;;;8.22;100.00
53480;BME280;56133;51.012;-1.648;2022-10-16T03:19:08;99836.69;;;8.17;100.00
53480;BME280;56133;51.012;-1.648;2022-10-16T03:21:33;99845.22;;;8.11;100.00
53480;BME280;56133;51.012;-1.648;2022-10-16T03:23:59;99844.25;;;8.12;100.00
53480;BME280;56133;51.012;-1.648;2022-10-16T03:26:24;99852.81;;;8.05;100.00
53480;BME280;56133;51.012;-1.648;2022-10-16T03:28:49;99850.28;;;8.04;100.00
53480;BME280;56133;51.012;-1.648;2022-10-16T03:31:15;99845.66;;;8.06;100.00
53480;BME280;56133;51.012;-1.648;2022-10-16T03:33:40;99848.38;;;7.95;100.00
53480;BME280;56133;51.012;-1.648;2022-10-16T03:36:06;99854.03;;;7.92;100.00
53480;BME280;56133;51.012;-1.648;2022-10-16T03:38:32;99856.69;;;7.92;100.00
53480;BME280;56133;51.012;-1.648;2022-10-16T03:40:57;99853.34;;;7.99;100.00
53480;BME280;56133;51.012;-1.648;2022-10-16T03:43:23;99853.03;;;7.93;100.00
53480;BME280;56133;51.012;-1.648;2022-10-16T03:45:50;99865.09;;;7.87;100.00
53480;BME280;56133;51.012;-1.648;2022-10-16T03:48:15;99861.72;;;7.85;100.00
53480;BME280;56133;51.012;-1.648;2022-10-16T03:50:41;99871.97;;;7.80;100.00
53480;BME280;56133;51.012;-1.648;2022-10-16T03:53:06;99874.91;;;7.77;100.00
53480;BME280;56133;51.012;-1.648;2022-10-16T03:55:32;99868.81;;;7.74;100.00
53480;BME280;56133;51.012;-1.648;2022-10-16T03:57:57;99884.28;;;7.71;100.00
53480;BME280;56133;51.012;-1.648;2022-10-16T04:00:22;99881.63;;;7.71;100.00
53480;BME280;56133;51.012;-1.648;2022-10-16T04:02:48;99883.56;;;7.69;100.00
53480;BME280;56133;51.012;-1.648;2022-10-16T04:05:13;99884.28;;;7.71;100.00
53480;BME280;56133;51.012;-1.648;2022-10-16T04:07:39;99887.03;;;7.59;100.00
53480;BME280;56133;51.012;-1.648;2022-10-16T04:10:05;99891.28;;;7.62;100.00
53480;BME280;56133;51.012;-1.648;2022-10-16T04:12:30;99895.25;;;7.68;100.00
53480;BME280;56133;51.012;-1.648;2022-10-16T04:14:56;99893.22;;;7.60;100.00
53480;BME280;56133;51.012;-1.648;2022-10-16T04:17:22;99900.34;;;7.71;100.00
53480;BME280;56133;51.012;-1.648;2022-10-16T04:19:47;99897.59;;;7.61;100.00
53480;BME280;56133;51.012;-1.648;2022-10-16T04:22:13;99896.47;;;7.64;100.00
53480;BME280;56133;51.012;-1.648;2022-10-16T04:24:38;99900.72;;;7.66;100.00
53480;BME280;56133;51.012;-1.648;2022-10-16T04:27:04;99907.50;;;7.70;100.00
53480;BME280;56133;51.012;-1.648;2022-10-16T04:29:29;99913.13;;;7.67;100.00
53480;BME280;56133;51.012;-1.648;2022-10-16T04:31:55;99914.69;;;7.70;100.00
53480;BME280;56133;51.012;-1.648;2022-10-16T04:34:21;99925.78;;;7.65;100.00
53480;BME280;56133;51.012;-1.648;2022-10-16T04:36:47;99929.53;;;7.63;100.00
53480;BME280;56133;51.012;-1.648;2022-10-16T04:39:14;99931.38;;;7.62;100.00
53480;BME280;56133;51.012;-1.648;2022-10-16T04:41:39;99934.03;;;7.62;100.00
53480;BME280;56133;51.012;-1.648;2022-10-16T04:44:04;99937.69;;;7.61;100.00
53480;BME280;56133;51.012;-1.648;2022-10-16T04:46:30;99937.94;;;7.58;100.00
53480;BME280;56133;51.012;-1.648;2022-10-16T04:48:55;99943.53;;;7.55;100.00
53480;BME280;56133;51.012;-1.648;2022-10-16T04:51:21;99945.03;;;7.48;100.00
53480;BME280;56133;51.012;-1.648;2022-10-16T04:53:46;99950.38;;;7.48;100.00
53480;BME280;56133;51.012;-1.648;2022-10-16T04:56:12;99954.44;;;7.42;100.00
53480;BME280;56133;51.012;-1.648;2022-10-16T04:58:37;99966.19;;;7.39;100.00
53480;BME280;56133;51.012;-1.648;2022-10-16T05:01:03;99961.72;;;7.40;100.00
53480;BME280;56133;51.012;-1.648;2022-10-16T05:03:28;99977.03;;;7.38;100.00
53480;BME280;56133;51.012;-1.648;2022-10-16T05:05:53;99978.00;;;7.37;100.00
53480;BME280;56133;51.012;-1.648;2022-10-16T05:08:19;99980.78;;;7.35;100.00
53480;BME280;56133;51.012;-1.648;2022-10-16T05:10:45;99988.09;;;7.33;100.00
53480;BME280;56133;51.012;-1.648;2022-10-16T05:13:11;99983.09;;;7.28;100.00
53480;BME280;56133;51.012;-1.648;2022-10-16T05:15:36;99980.81;;;7.24;100.00
53480;BME280;56133;51.012;-1.648;2022-10-16T05:18:02;99982.03;;;7.20;100.00
53480;BME280;56133;51.012;-1.648;2022-10-16T05:20:28;99991.84;;;7.31;100.00
53480;BME280;56133;51.012;-1.648;2022-10-16T05:22:53;99989.28;;;7.40;100.00
53480;BME280;56133;51.012;-1.648;2022-10-16T05:25:19;99997.78;;;7.46;100.00
53480;BME280;56133;51.012;-1.648;2022-10-16T05:27:48;99996.91;;;7.45;100.00
53480;BME280;56133;51.012;-1.648;2022-10-16T05:30:14;99998.78;;;7.33;100.00
53480;BME280;56133;51.012;-1.648;2022-10-16T05:32:39;100015.56;;;7.24;100.00
53480;BME280;56133;51.012;-1.648;2022-10-16T05:35:05;100013.75;;;7.13;100.00
53480;BME280;56133;51.012;-1.648;2022-10-16T05:37:31;100015.97;;;7.08;100.00
53480;BME280;56133;51.012;-1.648;2022-10-16T05:39:56;100025.03;;;7.05;100.00
53480;BME280;56133;51.012;-1.648;2022-10-16T05:42:21;100035.59;;;6.95;100.00
53480;BME280;56133;51.012;-1.648;2022-10-16T05:44:47;100037.81;;;6.90;100.00
53480;BME280;56133;51.012;-1.648;2022-10-16T05:47:12;100033.44;;;6.89;100.00
53480;BME280;56133;51.012;-1.648;2022-10-16T05:49:39;100031.34;;;7.04;100.00
53480;BME280;56133;51.012;-1.648;2022-10-16T05:52:04;100030.16;;;6.97;100.00
53480;BME280;56133;51.012;-1.648;2022-10-16T05:54:30;100029.53;;;6.93;100.00
53480;BME280;56133;51.012;-1.648;2022-10-16T05:56:56;100033.81;;;6.96;100.00
53480;BME280;56133;51.012;-1.648;2022-10-16T05:59:22;100046.44;;;6.94;100.00
53480;BME280;56133;51.012;-1.648;2022-10-16T06:01:47;100047.63;;;6.78;100.00
53480;BME280;56133;51.012;-1.648;2022-10-16T06:04:13;100045.44;;;6.72;100.00
53480;BME280;56133;51.012;-1.648;2022-10-16T06:06:38;100049.94;;;6.72;100.00
53480;BME280;56133;51.012;-1.648;2022-10-16T06:09:04;100053.56;;;6.82;100.00
53480;BME280;56133;51.012;-1.648;2022-10-16T06:11:31;100040.97;;;6.84;100.00
53480;BME280;56133;51.012;-1.648;2022-10-16T06:13:59;100049.09;;;6.82;100.00
53480;BME280;56133;51.012;-1.648;2022-10-16T06:16:35;100049.69;;;6.86;100.00
53480;BME280;56133;51.012;-1.648;2022-10-16T06:19:02;100052.13;;;6.89;100.00
53480;BME280;56133;51.012;-1.648;2022-10-16T06:21:31;100049.69;;;6.86;100.00
53480;BME280;56133;51.012;-1.648;2022-10-16T06:23:57;100048.84;;;6.86;100.00
53480;BME280;56133;51.012;-1.648;2022-10-16T06:26:25;100059.16;;;6.79;100.00
53480;BME280;56133;51.012;-1.648;2022-10-16T06:28:51;100062.66;;;6.68;100.00
53480;BME280;56133;51.012;-1.648;2022-10-16T06:31:17;100066.06;;;6.70;100.00
53480;BME280;56133;51.012;-1.648;2022-10-16T06:33:43;100070.34;;;6.84;100.00
53480;BME280;56133;51.012;-1.648;2022-10-16T06:36:13;100080.78;;;6.87;100.00
53480;BME280;56133;51.012;-1.648;2022-10-16T06:38:39;100089.03;;;6.84;100.00
53480;BME280;56133;51.012;-1.648;2022-10-16T06:41:06;100093.25;;;6.87;100.00
53480;BME280;56133;51.012;-1.648;2022-10-16T06:43:32;100089.38;;;6.91;100.00
53480;BME280;56133;51.012;-1.648;2022-10-16T06:45:59;100089.25;;;6.92;100.00
53480;BME280;56133;51.012;-1.648;2022-10-16T06:48:25;100098.88;;;6.95;100.00
53480;BME280;56133;51.012;-1.648;2022-10-16T06:50:59;100100.53;;;6.84;100.00
53480;BME280;56133;51.012;-1.648;2022-10-16T06:53:26;100103.09;;;6.86;100.00
53480;BME280;56133;51.012;-1.648;2022-10-16T06:55:53;100106.00;;;6.94;100.00
53480;BME280;56133;51.012;-1.648;2022-10-16T06:58:19;100097.91;;;7.07;100.00
53480;BME280;56133;51.012;-1.648;2022-10-16T07:00:45;100099.72;;;7.07;100.00
53480;BME280;56133;51.012;-1.648;2022-10-16T07:03:10;100101.78;;;7.14;100.00
53480;BME280;56133;51.012;-1.648;2022-10-16T07:05:40;100106.41;;;7.24;100.00
53480;BME280;56133;51.012;-1.648;2022-10-16T07:08:06;100109.44;;;7.31;100.00
53480;BME280;56133;51.012;-1.648;2022-10-16T07:10:32;100110.88;;;7.35;100.00
53480;BME280;56133;51.012;-1.648;2022-10-16T07:12:57;100124.97;;;7.37;100.00
53480;BME280;56133;51.012;-1.648;2022-10-16T07:15:24;100112.19;;;7.52;100.00
53480;BME280;56133;51.012;-1.648;2022-10-16T07:17:50;100121.19;;;7.62;100.00
53480;BME280;56133;51.012;-1.648;2022-10-16T07:20:16;100124.09;;;7.59;100.00
53480;BME280;56133;51.012;-1.648;2022-10-16T07:22:41;100134.19;;;7.55;100.00
53480;BME280;56133;51.012;-1.648;2022-10-16T07:25:07;100131.78;;;7.52;100.00
53480;BME280;56133;51.012;-1.648;2022-10-16T07:27:33;100128.13;;;7.53;100.00
53480;BME280;56133;51.012;-1.648;2022-10-16T07:29:58;100138.81;;;7.53;100.00
53480;BME280;56133;51.012;-1.648;2022-10-16T07:32:23;100134.19;;;7.55;100.00
53480;BME280;56133;51.012;-1.648;2022-10-16T07:34:51;100142.81;;;7.59;100.00
53480;BME280;56133;51.012;-1.648;2022-10-16T07:37:16;100143.78;;;7.58;100.00
53480;BME280;56133;51.012;-1.648;2022-10-16T07:39:42;100150.69;;;7.60;100.00
53480;BME280;56133;51.012;-1.648;2022-10-16T07:42:08;100157.75;;;7.62;100.00
53480;BME280;56133;51.012;-1.648;2022-10-16T07:44:33;100160.31;;;7.63;100.00
53480;BME280;56133;51.012;-1.648;2022-10-16T07:46:59;100162.72;;;7.78;100.00
53480;BME280;56133;51.012;-1.648;2022-10-16T07:49:24;100155.75;;;7.98;100.00
53480;BME280;56133;51.012;-1.648;2022-10-16T07:51:50;100155.34;;;8.14;100.00
53480;BME280;56133;51.012;-1.648;2022-10-16T07:54:15;100153.66;;;8.13;100.00
53480;BME280;56133;51.012;-1.648;2022-10-16T07:56:41;100156.06;;;8.16;100.00
53480;BME280;56133;51.012;-1.648;2022-10-16T07:59:06;100156.75;;;8.29;100.00
53480;BME280;56133;51.012;-1.648;2022-10-16T08:01:32;100165.13;;;8.36;100.00
53480;BME280;56133;51.012;-1.648;2022-10-16T08:03:57;100164.41;;;8.34;100.00
53480;BME280;56133;51.012;-1.648;2022-10-16T08:06:23;100166.19;;;8.45;100.00
53480;BME280;56133;51.012;-1.648;2022-10-16T08:08:49;100155.47;;;8.45;100.00
53480;BME280;56133;51.012;-1.648;2022-10-16T08:11:14;100158.50;;;8.52;100.00
53480;BME280;56133;51.012;-1.648;2022-10-16T08:13:40;100172.47;;;8.55;100.00
53480;BME280;56133;51.012;-1.648;2022-10-16T08:16:06;100172.69;;;8.63;100.00
53480;BME280;56133;51.012;-1.648;2022-10-16T08:18:34;100189.50;;;8.65;100.00
53480;BME280;56133;51.012;-1.648;2022-10-16T08:21:01;100193.63;;;8.70;100.00
53480;BME280;56133;51.012;-1.648;2022-10-16T08:23:27;100196.94;;;8.83;100.00
53480;BME280;56133;51.012;-1.648;2022-10-16T08:25:53;100193.63;;;8.91;100.00
53480;BME280;56133;51.012;-1.648;2022-10-16T08:28:19;100189.47;;;9.08;100.00
53480;BME280;56133;51.012;-1.648;2022-10-16T08:30:45;100194.38;;;9.24;100.00
53480;BME280;56133;51.012;-1.648;2022-10-16T08:33:11;100200.72;;;9.23;100.00
53480;BME280;56133;51.012;-1.648;2022-10-16T08:35:36;100193.97;;;9.29;100.00
53480;BME280;56133;51.012;-1.648;2022-10-16T08:38:05;100200.78;;;9.33;100.00
53480;BME280;56133;51.012;-1.648;2022-10-16T08:40:33;100198.00;;;9.44;100.00
53480;BME280;56133;51.012;-1.648;2022-10-16T08:43:21;100201.97;;;9.50;100.00
53480;BME280;56133;51.012;-1.648;2022-10-16T08:48:54;100208.38;;;9.59;100.00
53480;BME280;56133;51.012;-1.648;2022-10-16T08:51:24;100213.25;;;9.75;100.00
53480;BME280;56133;51.012;-1.648;2022-10-16T08:53:54;100213.97;;;9.77;100.00
53480;BME280;56133;51.012;-1.648;2022-10-16T08:56:21;100215.41;;;9.91;100.00
53480;BME280;56133;51.012;-1.648;2022-10-16T08:58:47;100214.44;;;10.01;100.00
53480;BME280;56133;51.012;-1.648;2022-10-16T09:01:15;100218.13;;;10.10;100.00
53480;BME280;56133;51.012;-1.648;2022-10-16T09:06:50;100227.00;;;10.42;100.00
53480;BME280;56133;51.012;-1.648;2022-10-16T09:17:17;100223.34;;;10.82;100.00
53480;BME280;56133;51.012;-1.648;2022-10-16T09:22:32;100221.22;;;10.96;100.00
53480;BME280;56133;51.012;-1.648;2022-10-16T09:25:10;100215.97;;;10.94;100.00
53480;BME280;56133;51.012;-1.648;2022-10-16T09:27:37;100224.03;;;10.94;100.00
53480;BME280;56133;51.012;-1.648;2022-10-16T09:30:11;100215.56;;;10.99;100.00
53480;BME280;56133;51.012;-1.648;2022-10-16T09:32:38;100217.66;;;11.05;100.00
53480;BME280;56133;51.012;-1.648;2022-10-16T09:35:11;100214.81;;;11.06;100.00
53480;BME280;56133;51.012;-1.648;2022-10-16T09:37:39;100217.34;;;11.08;100.00
53480;BME280;56133;51.012;-1.648;2022-10-16T09:40:06;100223.69;;;11.27;100.00
53480;BME280;56133;51.012;-1.648;2022-10-16T09:42:34;100221.13;;;11.35;100.00
53480;BME280;56133;51.012;-1.648;2022-10-16T09:45:01;100226.16;;;11.58;100.00
53480;BME280;56133;51.012;-1.648;2022-10-16T09:47:28;100230.41;;;11.60;100.00
53480;BME280;56133;51.012;-1.648;2022-10-16T09:52:22;100226.22;;;11.76;100.00
53480;BME280;56133;51.012;-1.648;2022-10-16T09:54:53;100218.38;;;11.92;100.00
53480;BME280;56133;51.012;-1.648;2022-10-16T09:57:19;100223.50;;;12.13;100.00
53480;BME280;56133;51.012;-1.648;2022-10-16T09:59:58;100219.97;;;12.13;100.00
53480;BME280;56133;51.012;-1.648;2022-10-16T10:02:28;100224.97;;;12.08;100.00
53480;BME280;56133;51.012;-1.648;2022-10-16T10:04:54;100223.41;;;12.05;100.00
53480;BME280;56133;51.012;-1.648;2022-10-16T10:07:26;100231.25;;;11.98;100.00
53480;BME280;56133;51.012;-1.648;2022-10-16T10:09:52;100222.88;;;12.02;100.00
53480;BME280;56133;51.012;-1.648;2022-10-16T10:12:23;100212.03;;;11.83;100.00
53480;BME280;56133;51.012;-1.648;2022-10-16T10:14:52;100221.44;;;11.97;100.00
53480;BME280;56133;51.012;-1.648;2022-10-16T10:17:23;100220.72;;;12.05;100.00
53480;BME280;56133;51.012;-1.648;2022-10-16T10:19:53;100222.66;;;12.13;100.00
53480;BME280;56133;51.012;-1.648;2022-10-16T10:22:43;100229.44;;;12.17;100.00
53480;BME280;56133;51.012;-1.648;2022-10-16T10:30:20;100221.00;;;12.12;100.00
53480;BME280;56133;51.012;-1.648;2022-10-16T10:35:22;100222.81;;;12.11;100.00
53480;BME280;56133;51.012;-1.648;2022-10-16T10:38:16;100223.47;;;12.23;100.00
53480;BME280;56133;51.012;-1.648;2022-10-16T10:46:03;100221.41;;;12.35;100.00
53480;BME280;56133;51.012;-1.648;2022-10-16T10:54:38;100226.25;;;12.50;100.00
53480;BME280;56133;51.012;-1.648;2022-10-16T11:02:26;100220.56;;;12.71;100.00
53480;BME280;56133;51.012;-1.648;2022-10-16T11:08:02;100211.84;;;12.59;100.00
53480;BME280;56133;51.012;-1.648;2022-10-16T11:15:40;100215.13;;;13.33;100.00
53480;BME280;56133;51.012;-1.648;2022-10-16T11:18:13;100222.59;;;12.95;100.00
53480;BME280;56133;51.012;-1.648;2022-10-16T11:20:58;100213.81;;;13.11;100.00
53480;BME280;56133;51.012;-1.648;2022-10-16T11:23:32;100214.13;;;13.34;100.00
53480;BME280;56133;51.012;-1.648;2022-10-16T11:26:04;100218.44;;;13.45;100.00
53480;BME280;56133;51.012;-1.648;2022-10-16T11:28:37;100226.25;;;13.57;100.00
53480;BME280;56133;51.012;-1.648;2022-10-16T11:31:10;100212.78;;;13.57;100.00
53480;BME280;56133;51.012;-1.648;2022-10-16T11:33:46;100215.75;;;13.80;100.00
53480;BME280;56133;51.012;-1.648;2022-10-16T11:39:00;100215.91;;;14.21;100.00
53480;BME280;56133;51.012;-1.648;2022-10-16T11:41:34;100221.50;;;14.28;100.00
53480;BME280;56133;51.012;-1.648;2022-10-16T11:44:18;100220.44;;;14.21;100.00
53480;BME280;56133;51.012;-1.648;2022-10-16T11:46:52;100206.81;;;14.47;100.00
53480;BME280;56133;51.012;-1.648;2022-10-16T11:49:25;100204.31;;;14.62;100.00
53480;BME280;56133;51.012;-1.648;2022-10-16T11:52:01;100204.66;;;14.59;100.00
53480;BME280;56133;51.012;-1.648;2022-10-16T11:54:53;100201.41;;;14.47;100.00
53480;BME280;56133;51.012;-1.648;2022-10-16T11:57:27;100197.56;;;14.50;100.00
53480;BME280;56133;51.012;-1.648;2022-10-16T12:00:22;100196.34;;;14.44;100.00
53480;BME280;56133;51.012;-1.648;2022-10-16T12:02:57;100197.88;;;14.55;100.00
53480;BME280;56133;51.012;-1.648;2022-10-16T12:08:19;100189.50;;;14.83;100.00
53480;BME280;56133;51.012;-1.648;2022-10-16T12:10:46;100191.34;;;14.91;100.00
53480;BME280;56133;51.012;-1.648;2022-10-16T12:13:35;100191.34;;;14.91;100.00
53480;BME280;56133;51.012;-1.648;2022-10-16T12:16:20;100191.34;;;14.74;100.00
53480;BME280;56133;51.012;-1.648;2022-10-16T12:18:47;100202.66;;;14.78;100.00
53480;BME280;56133;51.012;-1.648;2022-10-16T12:21:14;100194.22;;;14.81;100.00
53480;BME280;56133;51.012;-1.648;2022-10-16T12:23:51;100191.16;;;15.09;100.00
53480;BME280;56133;51.012;-1.648;2022-10-16T12:26:27;100181.66;;;15.21;100.00
53480;BME280;56133;51.012;-1.648;2022-10-16T12:28:55;100180.97;;;15.27;100.00
53480;BME280;56133;51.012;-1.648;2022-10-16T12:31:21;100181.72;;;14.96;100.00
53480;BME280;56133;51.012;-1.648;2022-10-16T12:34:00;100181.69;;;14.71;100.00
53480;BME280;56133;51.012;-1.648;2022-10-16T12:36:34;100189.28;;;14.60;100.00
53480;BME280;56133;51.012;-1.648;2022-10-16T12:39:01;100193.13;;;14.40;100.00
53480;BME280;56133;51.012;-1.648;2022-10-16T12:41:32;100183.66;;;14.36;100.00
53480;BME280;56133;51.012;-1.648;2022-10-16T12:43:59;100179.59;;;14.24;100.00
53480;BME280;56133;51.012;-1.648;2022-10-16T12:51:47;100169.53;;;14.67;100.00
53480;BME280;56133;51.012;-1.648;2022-10-16T12:54:31;100172.41;;;14.91;100.00
53480;BME280;56133;51.012;-1.648;2022-10-16T12:59:55;100169.34;;;15.10;100.00
53480;BME280;56133;51.012;-1.648;2022-10-16T13:05:30;100162.72;;;15.29;100.00
53480;BME280;56133;51.012;-1.648;2022-10-16T13:19:18;100146.19;;;14.91;100.00
53480;BME280;56133;51.012;-1.648;2022-10-16T13:21:54;100137.59;;;14.79;100.00
53480;BME280;56133;51.012;-1.648;2022-10-16T13:25:15;100127.94;;;15.01;100.00
53480;BME280;56133;51.012;-1.648;2022-10-16T13:27:50;100128.97;;;15.00;100.00
53480;BME280;56133;51.012;-1.648;2022-10-16T13:30:21;100128.47;;;14.89;100.00
53480;BME280;56133;51.012;-1.648;2022-10-16T13:32:52;100142.97;;;14.96;100.00
53480;BME280;56133;51.012;-1.648;2022-10-16T13:35:24;100144.50;;;14.98;100.00
53480;BME280;56133;51.012;-1.648;2022-10-16T13:37:50;100141.16;;;14.80;100.00
53480;BME280;56133;51.012;-1.648;2022-10-16T13:40:22;100142.16;;;14.70;100.00
53480;BME280;56133;51.012;-1.648;2022-10-16T13:42:49;100138.44;;;14.63;100.00
53480;BME280;56133;51.012;-1.648;2022-10-16T13:45:20;100143.66;;;14.65;100.00
53480;BME280;56133;51.012;-1.648;2022-10-16T13:47:46;100144.16;;;14.52;100.00
53480;BME280;56133;51.012;-1.648;2022-10-16T13:50:15;100148.22;;;14.56;100.00
53480;BME280;56133;51.012;-1.648;2022-10-16T13:52:42;100137.25;;;14.57;100.00
53480;BME280;56133;51.012;-1.648;2022-10-16T13:57:37;100146.53;;;14.63;100.00
53480;BME280;56133;51.012;-1.648;2022-10-16T14:00:03;100144.03;;;14.70;100.00
53480;BME280;56133;51.012;-1.648;2022-10-16T14:02:42;100142.16;;;14.70;100.00
53480;BME280;56133;51.012;-1.648;2022-10-16T14:05:08;100137.44;;;14.72;100.00
53480;BME280;56133;51.012;-1.648;2022-10-16T14:07:36;100133.41;;;14.68;100.00
53480;BME280;56133;51.012;-1.648;2022-10-16T14:10:07;100133.19;;;14.53;100.00
53480;BME280;56133;51.012;-1.648;2022-10-16T14:12:43;100130.13;;;14.48;100.00
53480;BME280;56133;51.012;-1.648;2022-10-16T14:15:17;100130.97;;;14.57;100.00
53480;BME280;56133;51.012;-1.648;2022-10-16T14:17:45;100123.88;;;14.56;100.00